createdAt,value
2022-11-21T00:03:07.288Z,1.92
2022-11-21T00:08:10.824Z,1.91
2022-11-21T00:13:19.283Z,1.96
2022-11-21T00:18:20.684Z,1.90
2022-11-21T00:23:22.047Z,1.98
2022-11-21T00:28:23.500Z,2.01
2022-11-21T00:33:25.047Z,2.04
2022-11-21T00:38:27.510Z,2.12
2022-11-21T00:43:28.905Z,2.21
2022-11-21T00:48:31.437Z,2.20
2022-11-21T00:53:32.852Z,2.17
2022-11-21T00:58:35.000Z,2.19
2022-11-21T01:03:36.827Z,2.19
2022-11-21T01:08:40.763Z,2.18
2022-11-21T01:13:42.760Z,2.15
2022-11-21T01:18:44.840Z,2.15
2022-11-21T01:23:46.725Z,2.14
2022-11-21T01:28:48.856Z,2.15
2022-11-21T01:33:50.782Z,2.17
2022-11-21T01:38:54.387Z,2.17
2022-11-21T01:43:55.764Z,2.18
2022-11-21T01:49:04.860Z,2.22
2022-11-21T01:54:11.259Z,2.31
2022-11-21T01:59:20.529Z,2.45
2022-11-21T02:04:24.142Z,2.62
2022-11-21T02:09:25.950Z,2.79
2022-11-21T02:14:28.124Z,2.97
2022-11-21T02:19:40.696Z,3.13
2022-11-21T02:25:11.963Z,3.26
2022-11-21T02:30:13.507Z,3.34
2022-11-21T02:35:17.734Z,3.40
2022-11-21T02:40:25.402Z,3.51
2022-11-21T02:45:40.018Z,3.55
2022-11-21T02:50:43.686Z,3.59
2022-11-21T02:55:45.740Z,3.61
2022-11-21T03:00:47.234Z,3.65
2022-11-21T03:05:48.903Z,3.69
2022-11-21T03:10:50.285Z,3.70
2022-11-21T03:15:52.007Z,3.74
2022-11-21T03:20:53.374Z,3.75
2022-11-21T03:25:54.734Z,3.79
2022-11-21T03:30:56.138Z,3.85
2022-11-21T03:35:57.514Z,3.88
2022-11-21T03:41:03.613Z,3.90
2022-11-21T03:46:05.043Z,3.89
2022-11-21T03:51:06.407Z,3.90
2022-11-21T03:56:07.788Z,3.92
2022-11-21T04:01:09.559Z,3.94
2022-11-21T04:06:12.928Z,3.96
2022-11-21T04:11:14.411Z,3.97
2022-11-21T04:16:15.802Z,4.00
2022-11-21T04:21:17.202Z,4.02
2022-11-21T04:26:18.566Z,4.03
2022-11-21T04:31:19.967Z,4.06
2022-11-21T04:36:21.331Z,4.05
2022-11-21T04:41:22.712Z,4.04
2022-11-21T04:46:24.187Z,4.06
2022-11-21T04:51:25.574Z,4.06
2022-11-21T04:56:26.947Z,4.10
2022-11-21T05:01:28.391Z,4.18
2022-11-21T05:06:29.982Z,4.23
2022-11-21T05:11:50.078Z,4.27
2022-11-21T05:16:52.407Z,4.32
2022-11-21T05:21:53.813Z,4.38
2022-11-21T05:26:55.347Z,4.39
2022-11-21T05:31:56.763Z,4.38
2022-11-21T05:36:58.874Z,4.33
2022-11-21T05:42:03.192Z,4.21
2022-11-21T05:47:04.887Z,4.08
2022-11-21T05:52:06.282Z,4.03
2022-11-21T05:57:07.682Z,3.99
2022-11-21T06:02:27.743Z,3.91
2022-11-21T06:07:29.231Z,3.77
2022-11-21T06:12:31.484Z,3.67
2022-11-21T06:17:32.890Z,3.60
2022-11-21T06:22:34.287Z,3.57
2022-11-21T06:27:35.662Z,3.56
2022-11-21T06:32:37.733Z,3.48
2022-11-21T06:37:39.139Z,3.28
2022-11-21T06:42:40.539Z,3.15
2022-11-21T06:47:41.935Z,3.07
2022-11-21T06:52:43.359Z,2.99
2022-11-21T06:57:44.763Z,2.92
2022-11-21T07:02:46.558Z,2.88
2022-11-21T07:07:47.991Z,2.74
2022-11-21T07:13:08.243Z,2.63
2022-11-21T07:18:09.608Z,2.42
2022-11-21T07:23:11.522Z,2.20
2022-11-21T07:28:12.897Z,2.08
2022-11-21T07:33:14.394Z,2.02
2022-11-21T07:38:15.823Z,1.89
2022-11-21T07:43:17.898Z,1.80
2022-11-21T07:48:19.298Z,1.78
2022-11-21T07:53:20.796Z,1.76
2022-11-21T07:58:22.699Z,1.73
2022-11-21T08:03:25.191Z,1.65
2022-11-21T08:08:26.623Z,1.59
2022-11-21T08:13:28.940Z,1.50
2022-11-21T08:18:30.369Z,1.48
2022-11-21T08:23:32.256Z,1.45
2022-11-21T08:28:33.928Z,1.34
2022-11-21T08:33:40.492Z,1.26
2022-11-21T08:38:41.893Z,1.20
2022-11-21T08:43:43.618Z,1.12
2022-11-21T08:48:45.070Z,1.00
2022-11-21T08:53:46.509Z,0.95
2022-11-21T08:58:47.929Z,0.89
2022-11-21T09:03:49.322Z,0.82
2022-11-21T09:08:50.793Z,0.75
2022-11-21T09:14:12.335Z,0.69
2022-11-21T09:19:13.810Z,0.69
2022-11-21T09:24:15.522Z,0.75
2022-11-21T09:29:16.968Z,0.80
2022-11-21T09:34:19.456Z,0.86
2022-11-21T09:39:21.589Z,0.94
2022-11-21T09:44:50.039Z,1.05
2022-11-21T09:50:01.793Z,1.08
2022-11-21T09:55:07.977Z,1.05
2022-11-21T10:00:19.526Z,1.08
2022-11-21T10:05:38.606Z,1.09
2022-11-21T10:11:16.139Z,1.13
2022-11-21T10:16:34.062Z,1.17
2022-11-21T10:21:50.291Z,1.16
2022-11-21T10:27:00.211Z,1.15
2022-11-21T10:32:11.311Z,1.17
2022-11-21T10:37:31.488Z,1.24
2022-11-21T10:42:48.560Z,1.27
2022-11-21T10:47:52.046Z,1.32
2022-11-21T10:53:27.699Z,1.29
2022-11-21T10:58:56.052Z,1.33
2022-11-21T11:04:41.674Z,1.39
2022-11-21T11:09:38.646Z,1.39
2022-11-21T11:14:40.252Z,1.44
2022-11-21T11:20:05.346Z,1.41
2022-11-21T11:25:09.645Z,1.40
2022-11-21T11:30:15.843Z,1.39
2022-11-21T11:35:17.206Z,1.38
2022-11-21T11:40:35.963Z,1.35
2022-11-21T11:46:05.002Z,1.37
2022-11-21T11:51:32.338Z,1.45
2022-11-21T11:56:38.194Z,1.54
2022-11-21T12:01:44.829Z,1.62
2022-11-21T12:07:52.736Z,1.69
2022-11-21T12:12:23.487Z,1.67
2022-11-21T12:17:55.855Z,1.69
2022-11-21T12:22:57.486Z,1.76
2022-11-21T12:27:59.667Z,1.81
2022-11-21T12:33:20.490Z,1.89
2022-11-21T12:38:44.921Z,1.91
2022-11-21T12:43:58.322Z,1.93
2022-11-21T12:49:40.544Z,1.95
2022-11-21T12:55:17.960Z,2.04
2022-11-21T13:00:27.753Z,2.11
2022-11-21T13:05:32.625Z,2.15
2022-11-21T13:10:34.214Z,2.15
2022-11-21T13:15:56.820Z,2.31
2022-11-21T13:20:59.343Z,2.41
2022-11-21T13:26:00.803Z,2.48
2022-11-21T13:31:05.654Z,2.51
2022-11-21T13:36:11.650Z,2.56
2022-11-21T13:41:54.471Z,2.61
2022-11-21T13:47:00.328Z,2.64
2022-11-21T13:52:11.259Z,2.69
2022-11-21T13:57:26.673Z,2.74
2022-11-21T14:03:04.178Z,2.74
2022-11-21T14:08:21.629Z,2.80
2022-11-21T14:13:27.993Z,2.82
2022-11-21T14:18:30.255Z,2.83
2022-11-21T14:23:34.209Z,2.86
2022-11-21T14:28:35.670Z,2.83
2022-11-21T14:33:44.666Z,2.82
2022-11-21T14:44:20.361Z,2.83
2022-11-21T14:49:24.543Z,2.81
2022-11-21T14:54:29.707Z,2.79
2022-11-21T14:59:35.978Z,2.76
2022-11-21T15:04:37.579Z,2.71
2022-11-21T15:10:30.525Z,2.69
2022-11-21T15:15:06.324Z,2.68
2022-11-21T16:43:16.939Z,2.76
2022-11-21T16:48:45.076Z,2.74
2022-11-21T16:53:48.298Z,2.78
2022-11-21T16:58:49.759Z,2.78
2022-11-21T17:03:52.024Z,2.78
2022-11-21T17:08:53.394Z,2.81
2022-11-21T17:13:56.065Z,2.82
2022-11-21T17:44:38.865Z,2.50
2022-11-21T17:49:40.267Z,2.44
2022-11-21T17:54:41.688Z,2.39
2022-11-21T17:59:44.887Z,2.35
2022-11-21T18:04:47.159Z,2.31
2022-11-21T18:09:48.638Z,2.25
2022-11-21T18:14:50.020Z,2.15
2022-11-21T18:19:51.479Z,2.14
2022-11-21T18:24:52.868Z,2.10
2022-11-21T18:29:54.236Z,2.02
2022-11-21T18:34:55.671Z,1.96
2022-11-21T18:39:57.035Z,1.89
2022-11-21T18:44:58.652Z,1.83
2022-11-21T18:50:00.134Z,1.80
2022-11-21T18:55:01.554Z,1.80
2022-11-21T19:00:04.638Z,1.82
2022-11-21T19:05:06.311Z,1.85
2022-11-21T19:10:35.698Z,1.86
2022-11-21T19:35:51.698Z,1.85
2022-11-21T21:51:31.967Z,2.18
2022-11-21T21:56:34.004Z,2.16
2022-11-21T22:01:35.418Z,2.14
2022-11-21T22:06:36.835Z,2.15
2022-11-21T22:11:38.831Z,2.17
2022-11-21T22:16:41.419Z,2.15
2022-11-21T22:21:42.808Z,2.13
2022-11-21T22:26:45.730Z,2.13
2022-11-21T22:31:47.170Z,2.15
2022-11-21T22:36:48.771Z,2.11
2022-11-21T22:41:50.183Z,2.05
2022-11-21T22:46:51.552Z,2.03
2022-11-21T22:51:52.928Z,2.02
2022-11-21T23:06:18.615Z,2.11
2022-11-21T23:11:22.795Z,2.12
2022-11-21T23:16:25.500Z,2.10
2022-11-21T23:21:26.903Z,2.04
2022-11-21T23:26:28.303Z,2.01
2022-11-21T23:31:29.838Z,1.98
2022-11-21T23:36:32.517Z,1.95
2022-11-21T23:41:34.044Z,1.93
2022-11-21T23:46:35.615Z,1.95
2022-11-21T23:51:37.030Z,1.95
2022-11-21T23:56:38.490Z,1.92
